Costa Pacifica — ICJA — position and weather

sailwx.info

Track history (hours):
 
Tides and Currents Weather Stations Pressure Air Temp Water Temp Dewpoint Dewpoint Depression Visibility Wind Speed Wind Dir Waves Ship Positions

Costa Pacifica

Last reported at 2019-Nov-19 17:44 UTC. Time now 2019-Nov-20 09:33 UTC.
Position N 36°02' W 005°20'.

Length 290 m; draft 8.3 m.

Type: Ship. MMSI: 247258100.

Date/timePositionNaut miles runAvg speedWind from/ knotsBaromVisibWave heightAir tempDewpointWater temp
2019-Nov-19 17:44N 36°02' W 005°20'2217.7
2019-Nov-19 16:30N 36°07' W 004°54'22018.1
2019-Nov-19 04:23N 37°29' W 000°40'23719.1
2019-Nov-18 16:00N 40°53' E 001°55'918.7
2019-Nov-18 15:30N 41°02' E 002°01'21 4.5
2019-Nov-18 10:51N 41°21' E 002°10'0 0.0
2019-Nov-18 09:08N 41°21' E 002°10'4 1.0
2019-Nov-18 05:30N 41°17' E 002°11'612.3
2019-Nov-18 05:00N 41°15' E 002°19'1919.2
2019-Nov-18 04:00N 41°26' E 002°40'1514.8
2019-Nov-18 03:01N 41°35' E 002°56'1514.1
2019-Nov-18 01:57N 41°44' E 003°12'214 7.5
2019-Nov-16 21:30N 43°22' E 007°30'2019.9
2019-Nov-16 20:30N 43°36' E 007°50'2120.9
2019-Nov-16 19:31N 43°49' E 008°12'1020.5
2019-Nov-16 19:00N 43°57' E 008°21'1020.6
2019-Nov-16 18:30N 44°06' E 008°28'1211.9
2019-Nov-16 17:28N 44°19' E 008°29'0 0.0
2019-Nov-16 16:58N 44°19' E 008°29'0 0.0
2019-Nov-16 16:00N 44°19' E 008°29'0 0.0
2019-Nov-16 15:30N 44°19' E 008°29'0 0.0
2019-Nov-16 07:30N 44°19' E 008°29'0 0.2
2019-Nov-16 06:30N 44°19' E 008°30'5016.6
2019-Nov-16 03:31N 43°37' E 009°08'1120.6
2019-Nov-16 03:00N 43°28' E 009°16'1020.6
2019-Nov-16 02:31N 43°20' E 009°23'  
2019-Nov-13 18:27N 36°28' W 001°55'1621.3
2019-Nov-13 17:41N 36°21' W 002°14'105 7.1
2019-Nov-13 03:00N 36°22' W 004°24'5 9.7
2019-Nov-13 02:30N 36°18' W 004°27'4 8.6
2019-Nov-13 02:00N 36°14' W 004°27'14 7.0
2019-Nov-13 00:00N 36°03' W 004°37'510.3
2019-Nov-12 23:30N 36°02' W 004°44'1711.0
2019-Nov-12 22:00N 36°02' W 005°04'59613.1
2019-Nov-11 00:24N 29°52' W 014°20'6619.3
2019-Nov-10 21:00N 29°08' W 015°17'4618.5
2019-Nov-10 18:30N 28°38' W 015°56'18 7.3
2019-Nov-10 15:58N 28°28' W 016°15'0 0.0
2019-Nov-10 08:58N 28°28' W 016°15'10 3.5
2019-Nov-10 06:00N 28°28' W 016°03'3316.4
2019-Nov-10 04:00N 28°40' W 015°28'3612.1
2019-Nov-10 01:00N 28°44' W 014°47'  
Track history (hours):
 
Tides and Currents Weather Stations Pressure Air Temp Water Temp Dewpoint Dewpoint Depression Visibility Wind Speed Wind Dir Waves Ship Positions

Costa Pacifica

Last reported at 2019-Nov-19 17:44 UTC. Time now 2019-Nov-20 09:33 UTC.
Position N 36°02' W 005°20'.

Length 290 m; draft 8.3 m.

Type: Ship. MMSI: 247258100.

Date/timePositionNaut miles runAvg speedWind from/ knotsBaromVisibWave heightAir tempDewpointWater temp
2019-Nov-19 17:44N 36°02' W 005°20'2217.7
2019-Nov-19 16:30N 36°07' W 004°54'22018.1
2019-Nov-19 04:23N 37°29' W 000°40'23719.1
2019-Nov-18 16:00N 40°53' E 001°55'918.7
2019-Nov-18 15:30N 41°02' E 002°01'21 4.5
2019-Nov-18 10:51N 41°21' E 002°10'0 0.0
2019-Nov-18 09:08N 41°21' E 002°10'4 1.0
2019-Nov-18 05:30N 41°17' E 002°11'612.3
2019-Nov-18 05:00N 41°15' E 002°19'1919.2
2019-Nov-18 04:00N 41°26' E 002°40'1514.8
2019-Nov-18 03:01N 41°35' E 002°56'1514.1
2019-Nov-18 01:57N 41°44' E 003°12'214 7.5
2019-Nov-16 21:30N 43°22' E 007°30'2019.9
2019-Nov-16 20:30N 43°36' E 007°50'2120.9
2019-Nov-16 19:31N 43°49' E 008°12'1020.5
2019-Nov-16 19:00N 43°57' E 008°21'1020.6
2019-Nov-16 18:30N 44°06' E 008°28'1211.9
2019-Nov-16 17:28N 44°19' E 008°29'0 0.0
2019-Nov-16 16:58N 44°19' E 008°29'0 0.0
2019-Nov-16 16:00N 44°19' E 008°29'0 0.0
2019-Nov-16 15:30N 44°19' E 008°29'0 0.0
2019-Nov-16 07:30N 44°19' E 008°29'0 0.2
2019-Nov-16 06:30N 44°19' E 008°30'5016.6
2019-Nov-16 03:31N 43°37' E 009°08'1120.6
2019-Nov-16 03:00N 43°28' E 009°16'1020.6
2019-Nov-16 02:31N 43°20' E 009°23'  
2019-Nov-13 18:27N 36°28' W 001°55'1621.3
2019-Nov-13 17:41N 36°21' W 002°14'105 7.1
2019-Nov-13 03:00N 36°22' W 004°24'5 9.7
2019-Nov-13 02:30N 36°18' W 004°27'4 8.6
2019-Nov-13 02:00N 36°14' W 004°27'14 7.0
2019-Nov-13 00:00N 36°03' W 004°37'510.3
2019-Nov-12 23:30N 36°02' W 004°44'1711.0
2019-Nov-12 22:00N 36°02' W 005°04'59613.1
2019-Nov-11 00:24N 29°52' W 014°20'6619.3
2019-Nov-10 21:00N 29°08' W 015°17'4618.5
2019-Nov-10 18:30N 28°38' W 015°56'18 7.3
2019-Nov-10 15:58N 28°28' W 016°15'0 0.0
2019-Nov-10 08:58N 28°28' W 016°15'10 3.5
2019-Nov-10 06:00N 28°28' W 016°03'3316.4
2019-Nov-10 04:00N 28°40' W 015°28'3612.1
2019-Nov-10 01:00N 28°44' W 014°47'  

Dump ship's entire track history